Katrina — V2DW3 — position and weather

sailwx.info

Track history (hours):
 
Tides and Currents Weather Stations Pressure Air Temp Water Temp Dewpoint Dewpoint Depression Visibility Wind Speed Wind Dir Waves Ship Positions

Katrina

Last reported at 2017-Sep-15 18:00 UTC. Time now 2017-Sep-21 17:39 UTC.
Position N 34°33' E 134°46'.

Length 133 m; draft 7.3 m.

MMSI: 305354000.

Date/timePositionNaut miles runAvg speedWind from/ knotsBaromVisibWave heightAir tempDewpointWater temp
2017-Sep-15 18:00N 34°33' E 134°46'612.0
2017-Sep-15 17:30N 34°35' E 134°52'611.6
2017-Sep-15 17:00N 34°37' E 134°59'510.0
2017-Sep-15 16:30N 34°36' E 135°04'510.7
2017-Sep-15 16:00N 34°35' E 135°11'611.8
2017-Sep-15 15:30N 34°34' E 135°18'510.5
2017-Sep-15 15:00N 34°32' E 135°24'0 0.2
2017-Sep-15 13:37N 34°32' E 135°24'0 0.0
2017-Sep-15 06:51N 34°32' E 135°24'2 5.8
2017-Sep-15 06:30N 34°33' E 135°23'510.4
2017-Sep-15 06:00N 34°36' E 135°17'5 9.2
2017-Sep-15 05:31N 34°40' E 135°14'0 0.3
2017-Sep-15 04:56N 34°40' E 135°14'0 0.0
2017-Sep-15 04:26N 34°40' E 135°14'0 0.0
2017-Sep-15 03:56N 34°40' E 135°14'0 0.0
2017-Sep-15 03:26N 34°40' E 135°14'0 0.0
2017-Sep-15 02:56N 34°40' E 135°14'0 0.0
2017-Sep-15 02:26N 34°40' E 135°14'0 0.0
2017-Sep-15 01:55N 34°40' E 135°14'0 0.0
2017-Sep-15 01:19N 34°40' E 135°14'0 0.0
2017-Sep-15 00:55N 34°40' E 135°14'0 0.0
2017-Sep-15 00:13N 34°40' E 135°14'0 0.0
2017-Sep-14 23:55N 34°40' E 135°14'0 0.0
2017-Sep-14 23:25N 34°40' E 135°14'0 0.0
2017-Sep-14 22:55N 34°40' E 135°14'0 0.9
2017-Sep-14 22:30N 34°40' E 135°14'3 6.8
2017-Sep-14 22:00N 34°38' E 135°18'4 7.7
2017-Sep-14 21:30N 34°38' E 135°23'3 5.3
2017-Sep-14 20:59N 34°39' E 135°26'0 0.0
2017-Sep-14 20:29N 34°39' E 135°26'0 0.0
2017-Sep-14 19:59N 34°39' E 135°26'0 0.0
2017-Sep-14 19:23N 34°39' E 135°26'0 0.0
2017-Sep-14 18:59N 34°39' E 135°26'0 0.0
2017-Sep-14 18:23N 34°39' E 135°26'0 0.0
2017-Sep-14 17:59N 34°39' E 135°26'0 0.0
2017-Sep-14 17:23N 34°39' E 135°26'0 0.0
2017-Sep-14 16:59N 34°39' E 135°26'0 0.0
2017-Sep-14 15:47N 34°39' E 135°26'0 0.0
2017-Sep-14 15:29N 34°39' E 135°26'0 0.0
2017-Sep-14 14:59N 34°39' E 135°26'0 0.0
2017-Sep-14 14:29N 34°39' E 135°26'0 0.0
2017-Sep-14 13:53N 34°39' E 135°26'0 0.0
2017-Sep-14 13:29N 34°39' E 135°26'0 0.0
2017-Sep-14 12:53N 34°39' E 135°26'0 0.0
2017-Sep-14 12:29N 34°39' E 135°26'0 0.0
2017-Sep-14 11:59N 34°39' E 135°26'0 0.0
2017-Sep-14 11:29N 34°39' E 135°26'0 0.0
2017-Sep-14 10:47N 34°39' E 135°26'0 0.0
2017-Sep-14 10:30N 34°39' E 135°26'1 2.5
2017-Sep-14 10:00N 34°39' E 135°24'5 9.7
2017-Sep-14 09:30N 34°36' E 135°19'510.7
2017-Sep-14 09:00N 34°35' E 135°13'611.6
2017-Sep-14 08:30N 34°35' E 135°06'710.9
2017-Sep-14 07:53N 34°36' E 134°58'  
2017-Sep-12 01:40N 35°57' E 120°38'318.1
2017-Sep-12 01:29N 35°58' E 120°34'610.9
2017-Sep-12 00:54N 35°60' E 120°27'612.2
2017-Sep-12 00:24N 36°01' E 120°19'5 7.0
2017-Sep-11 23:39N 36°00' E 120°13'  
2017-Sep-08 12:38N 34°33' E 134°47'616.2
2017-Sep-08 12:15N 34°36' E 134°54'415.4
2017-Sep-08 12:00N 34°37' E 134°58'714.5
2017-Sep-08 11:30N 34°35' E 135°06'612.2
2017-Sep-08 10:59N 34°34' E 135°14'612.8
2017-Sep-08 10:29N 34°33' E 135°22'3 1.7
2017-Sep-08 08:54N 34°32' E 135°24'0 0.0
2017-Sep-08 08:28N 34°32' E 135°24'0 0.0
2017-Sep-08 08:00N 34°32' E 135°24'0 0.0
2017-Sep-08 07:30N 34°32' E 135°24'0 0.0
2017-Sep-08 07:00N 34°32' E 135°24'0 0.0
2017-Sep-08 06:30N 34°32' E 135°24'0 0.1
2017-Sep-08 06:00N 34°32' E 135°24'0 0.1
2017-Sep-08 05:30N 34°32' E 135°24'0 0.0
2017-Sep-08 05:00N 34°32' E 135°24'0 0.0
2017-Sep-08 04:21N 34°32' E 135°24'1 1.8
2017-Sep-08 03:59N 34°32' E 135°24'510.3
2017-Sep-08 03:30N 34°34' E 135°18'611.6
2017-Sep-08 03:00N 34°40' E 135°15'1 2.0
2017-Sep-08 02:31N 34°40' E 135°14'0 0.0
2017-Sep-08 02:00N 34°40' E 135°14'0 0.0
2017-Sep-08 01:30N 34°40' E 135°14'0 0.0
2017-Sep-08 01:00N 34°40' E 135°14'0 0.0
2017-Sep-08 00:30N 34°40' E 135°14'0 0.0
2017-Sep-07 23:57N 34°40' E 135°14'0 0.0
2017-Sep-07 23:29N 34°40' E 135°14'0 0.0
2017-Sep-07 22:59N 34°40' E 135°14'0 1.0
2017-Sep-07 22:30N 34°40' E 135°15'3 6.9
2017-Sep-07 22:00N 34°38' E 135°18'4 8.6
2017-Sep-07 21:30N 34°38' E 135°23'2 4.1
2017-Sep-07 20:59N 34°39' E 135°26'0 0.0
2017-Sep-07 20:30N 34°39' E 135°26'0 0.0
2017-Sep-07 19:55N 34°39' E 135°26'0 0.0
2017-Sep-07 19:26N 34°39' E 135°26'0 0.0
2017-Sep-07 19:00N 34°39' E 135°26'0 0.0
2017-Sep-07 18:30N 34°39' E 135°26'0 0.0
2017-Sep-07 17:57N 34°39' E 135°26'0 0.0
2017-Sep-07 17:30N 34°39' E 135°26'0 0.0
2017-Sep-07 17:00N 34°39' E 135°26'0 0.0
2017-Sep-07 16:28N 34°39' E 135°26'0 0.0
2017-Sep-07 16:00N 34°39' E 135°26'0 0.0
2017-Sep-07 15:30N 34°39' E 135°26'0 0.0
2017-Sep-07 15:00N 34°39' E 135°26'0 0.0
2017-Sep-07 14:30N 34°39' E 135°26'0 0.0
2017-Sep-07 13:56N 34°39' E 135°26'0 0.0
2017-Sep-07 13:30N 34°39' E 135°26'0 0.0
2017-Sep-07 13:01N 34°39' E 135°26'0 0.0
2017-Sep-07 12:25N 34°39' E 135°26'0 0.0
2017-Sep-07 11:49N 34°39' E 135°26'0 0.0
2017-Sep-07 11:31N 34°39' E 135°26'0 0.0
2017-Sep-07 10:58N 34°39' E 135°26'0 0.0
2017-Sep-07 10:29N 34°39' E 135°26'1 2.0
2017-Sep-07 10:00N 34°39' E 135°25'5 8.9
2017-Sep-07 09:30N 34°36' E 135°20'5 9.5
2017-Sep-07 09:00N 34°35' E 135°14'5 9.3
2017-Sep-07 08:30N 34°35' E 135°09'5 9.2
2017-Sep-07 08:00N 34°36' E 135°03'5 8.8
2017-Sep-07 07:27N 34°36' E 134°57'  
Track history (hours):
 
Tides and Currents Weather Stations Pressure Air Temp Water Temp Dewpoint Dewpoint Depression Visibility Wind Speed Wind Dir Waves Ship Positions

Katrina

Last reported at 2017-Sep-15 18:00 UTC. Time now 2017-Sep-21 17:39 UTC.
Position N 34°33' E 134°46'.

Length 133 m; draft 7.3 m.

MMSI: 305354000.

Date/timePositionNaut miles runAvg speedWind from/ knotsBaromVisibWave heightAir tempDewpointWater temp
2017-Sep-15 18:00N 34°33' E 134°46'612.0
2017-Sep-15 17:30N 34°35' E 134°52'611.6
2017-Sep-15 17:00N 34°37' E 134°59'510.0
2017-Sep-15 16:30N 34°36' E 135°04'510.7
2017-Sep-15 16:00N 34°35' E 135°11'611.8
2017-Sep-15 15:30N 34°34' E 135°18'510.5
2017-Sep-15 15:00N 34°32' E 135°24'0 0.2
2017-Sep-15 13:37N 34°32' E 135°24'0 0.0
2017-Sep-15 06:51N 34°32' E 135°24'2 5.8
2017-Sep-15 06:30N 34°33' E 135°23'510.4
2017-Sep-15 06:00N 34°36' E 135°17'5 9.2
2017-Sep-15 05:31N 34°40' E 135°14'0 0.3
2017-Sep-15 04:56N 34°40' E 135°14'0 0.0
2017-Sep-15 04:26N 34°40' E 135°14'0 0.0
2017-Sep-15 03:56N 34°40' E 135°14'0 0.0
2017-Sep-15 03:26N 34°40' E 135°14'0 0.0
2017-Sep-15 02:56N 34°40' E 135°14'0 0.0
2017-Sep-15 02:26N 34°40' E 135°14'0 0.0
2017-Sep-15 01:55N 34°40' E 135°14'0 0.0
2017-Sep-15 01:19N 34°40' E 135°14'0 0.0
2017-Sep-15 00:55N 34°40' E 135°14'0 0.0
2017-Sep-15 00:13N 34°40' E 135°14'0 0.0
2017-Sep-14 23:55N 34°40' E 135°14'0 0.0
2017-Sep-14 23:25N 34°40' E 135°14'0 0.0
2017-Sep-14 22:55N 34°40' E 135°14'0 0.9
2017-Sep-14 22:30N 34°40' E 135°14'3 6.8
2017-Sep-14 22:00N 34°38' E 135°18'4 7.7
2017-Sep-14 21:30N 34°38' E 135°23'3 5.3
2017-Sep-14 20:59N 34°39' E 135°26'0 0.0
2017-Sep-14 20:29N 34°39' E 135°26'0 0.0
2017-Sep-14 19:59N 34°39' E 135°26'0 0.0
2017-Sep-14 19:23N 34°39' E 135°26'0 0.0
2017-Sep-14 18:59N 34°39' E 135°26'0 0.0
2017-Sep-14 18:23N 34°39' E 135°26'0 0.0
2017-Sep-14 17:59N 34°39' E 135°26'0 0.0
2017-Sep-14 17:23N 34°39' E 135°26'0 0.0
2017-Sep-14 16:59N 34°39' E 135°26'0 0.0
2017-Sep-14 15:47N 34°39' E 135°26'0 0.0
2017-Sep-14 15:29N 34°39' E 135°26'0 0.0
2017-Sep-14 14:59N 34°39' E 135°26'0 0.0
2017-Sep-14 14:29N 34°39' E 135°26'0 0.0
2017-Sep-14 13:53N 34°39' E 135°26'0 0.0
2017-Sep-14 13:29N 34°39' E 135°26'0 0.0
2017-Sep-14 12:53N 34°39' E 135°26'0 0.0
2017-Sep-14 12:29N 34°39' E 135°26'0 0.0
2017-Sep-14 11:59N 34°39' E 135°26'0 0.0
2017-Sep-14 11:29N 34°39' E 135°26'0 0.0
2017-Sep-14 10:47N 34°39' E 135°26'0 0.0
2017-Sep-14 10:30N 34°39' E 135°26'1 2.5
2017-Sep-14 10:00N 34°39' E 135°24'5 9.7
2017-Sep-14 09:30N 34°36' E 135°19'510.7
2017-Sep-14 09:00N 34°35' E 135°13'611.6
2017-Sep-14 08:30N 34°35' E 135°06'710.9
2017-Sep-14 07:53N 34°36' E 134°58'  
2017-Sep-12 01:40N 35°57' E 120°38'318.1
2017-Sep-12 01:29N 35°58' E 120°34'610.9
2017-Sep-12 00:54N 35°60' E 120°27'612.2
2017-Sep-12 00:24N 36°01' E 120°19'5 7.0
2017-Sep-11 23:39N 36°00' E 120°13'  
2017-Sep-08 12:38N 34°33' E 134°47'616.2
2017-Sep-08 12:15N 34°36' E 134°54'415.4
2017-Sep-08 12:00N 34°37' E 134°58'714.5
2017-Sep-08 11:30N 34°35' E 135°06'612.2
2017-Sep-08 10:59N 34°34' E 135°14'612.8
2017-Sep-08 10:29N 34°33' E 135°22'3 1.7
2017-Sep-08 08:54N 34°32' E 135°24'0 0.0
2017-Sep-08 08:28N 34°32' E 135°24'0 0.0
2017-Sep-08 08:00N 34°32' E 135°24'0 0.0
2017-Sep-08 07:30N 34°32' E 135°24'0 0.0
2017-Sep-08 07:00N 34°32' E 135°24'0 0.0
2017-Sep-08 06:30N 34°32' E 135°24'0 0.1
2017-Sep-08 06:00N 34°32' E 135°24'0 0.1
2017-Sep-08 05:30N 34°32' E 135°24'0 0.0
2017-Sep-08 05:00N 34°32' E 135°24'0 0.0
2017-Sep-08 04:21N 34°32' E 135°24'1 1.8
2017-Sep-08 03:59N 34°32' E 135°24'510.3
2017-Sep-08 03:30N 34°34' E 135°18'611.6
2017-Sep-08 03:00N 34°40' E 135°15'1 2.0
2017-Sep-08 02:31N 34°40' E 135°14'0 0.0
2017-Sep-08 02:00N 34°40' E 135°14'0 0.0
2017-Sep-08 01:30N 34°40' E 135°14'0 0.0
2017-Sep-08 01:00N 34°40' E 135°14'0 0.0
2017-Sep-08 00:30N 34°40' E 135°14'0 0.0
2017-Sep-07 23:57N 34°40' E 135°14'0 0.0
2017-Sep-07 23:29N 34°40' E 135°14'0 0.0
2017-Sep-07 22:59N 34°40' E 135°14'0 1.0
2017-Sep-07 22:30N 34°40' E 135°15'3 6.9
2017-Sep-07 22:00N 34°38' E 135°18'4 8.6
2017-Sep-07 21:30N 34°38' E 135°23'2 4.1
2017-Sep-07 20:59N 34°39' E 135°26'0 0.0
2017-Sep-07 20:30N 34°39' E 135°26'0 0.0
2017-Sep-07 19:55N 34°39' E 135°26'0 0.0
2017-Sep-07 19:26N 34°39' E 135°26'0 0.0
2017-Sep-07 19:00N 34°39' E 135°26'0 0.0
2017-Sep-07 18:30N 34°39' E 135°26'0 0.0
2017-Sep-07 17:57N 34°39' E 135°26'0 0.0
2017-Sep-07 17:30N 34°39' E 135°26'0 0.0
2017-Sep-07 17:00N 34°39' E 135°26'0 0.0
2017-Sep-07 16:28N 34°39' E 135°26'0 0.0
2017-Sep-07 16:00N 34°39' E 135°26'0 0.0
2017-Sep-07 15:30N 34°39' E 135°26'0 0.0
2017-Sep-07 15:00N 34°39' E 135°26'0 0.0
2017-Sep-07 14:30N 34°39' E 135°26'0 0.0
2017-Sep-07 13:56N 34°39' E 135°26'0 0.0
2017-Sep-07 13:30N 34°39' E 135°26'0 0.0
2017-Sep-07 13:01N 34°39' E 135°26'0 0.0
2017-Sep-07 12:25N 34°39' E 135°26'0 0.0
2017-Sep-07 11:49N 34°39' E 135°26'0 0.0
2017-Sep-07 11:31N 34°39' E 135°26'0 0.0
2017-Sep-07 10:58N 34°39' E 135°26'0 0.0
2017-Sep-07 10:29N 34°39' E 135°26'1 2.0
2017-Sep-07 10:00N 34°39' E 135°25'5 8.9
2017-Sep-07 09:30N 34°36' E 135°20'5 9.5
2017-Sep-07 09:00N 34°35' E 135°14'5 9.3
2017-Sep-07 08:30N 34°35' E 135°09'5 9.2
2017-Sep-07 08:00N 34°36' E 135°03'5 8.8
2017-Sep-07 07:27N 34°36' E 134°57'  

Dump ship's entire track history